Time;durP1;ratioP1;P1;durP2;ratioP2;P2;SDS_P1;SDS_P2;PMS_P1;PMS_P2;Temp;Humidity;BMP_temperature;BMP_pressure;BME280_temperature;BME280_humidity;BME280_pressure;Samples;Min_cycle;Max_cycle;Signal;HPM_P1;HPM_P2
2024/02/24 00:01:33;;;;;;;10.45;6.70;;;;;;;;;;5078032;28;20382;-81
2024/02/24 00:04:00;;;;;;;53.28;25.63;;;;;;;;;;5078173;28;20466;-80
2024/02/24 00:06:26;;;;;;;12.18;7.50;;;;;;;;;;5078156;28;20900;-80
2024/02/24 00:08:52;;;;;;;15.85;8.40;;;;;;;;;;5078029;28;20381;-80
2024/02/24 00:11:18;;;;;;;4.10;2.60;;;;;;;;;;5078174;28;20411;-80
2024/02/24 00:13:44;;;;;;;5.32;4.18;;;;;;;;;;5077570;28;20415;-80
2024/02/24 00:16:10;;;;;;;3.65;2.75;;;;;;;;;;5077667;28;20399;-80
2024/02/24 00:18:36;;;;;;;9.52;7.00;;;;;;;;;;5078234;28;20853;-80
2024/02/24 00:21:02;;;;;;;7.28;5.85;;;;;;;;;;5077778;28;20387;-80
2024/02/24 00:23:28;;;;;;;6.00;4.50;;;;;;;;;;5077583;28;20426;-80
2024/02/24 00:25:54;;;;;;;5.35;4.03;;;;;;;;;;5078084;28;20380;-80
2024/02/24 00:28:20;;;;;;;3.45;3.15;;;;;;;;;;5077830;28;20449;-80
2024/02/24 00:30:46;;;;;;;3.35;2.88;;;;;;;;;;5077627;28;20411;-80
2024/02/24 00:33:12;;;;;;;2.78;2.50;;;;;;;;;;5077988;28;20485;-80
2024/02/24 00:35:41;;;;;;;4.10;2.88;;;;;;;;;;5077307;28;20420;-80
2024/02/24 00:38:07;;;;;;;4.13;3.33;;;;;;;;;;5077756;28;20445;-80
2024/02/24 00:40:33;;;;;;;13.67;8.23;;;;;;;;;;5077447;28;20384;-80
2024/02/24 00:42:58;;;;;;;12.35;7.45;;;;;;;;;;5077181;28;20380;-80
2024/02/24 00:45:24;;;;;;;9.30;6.47;;;;;;;;;;5077293;28;20394;-80
2024/02/24 00:47:50;;;;;;;7.90;5.40;;;;;;;;;;5077519;28;20395;-80
2024/02/24 00:50:16;;;;;;;4.53;3.50;;;;;;;;;;5077557;28;20379;-80
2024/02/24 00:52:42;;;;;;;4.10;3.37;;;;;;;;;;5077619;28;20412;-80
2024/02/24 00:55:09;;;;;;;4.32;2.78;;;;;;;;;;5072065;28;20417;-80
2024/02/24 00:57:35;;;;;;;4.27;3.13;;;;;;;;;;5056869;28;20410;-80
2024/02/24 01:00:02;;;;;;;3.40;3.08;;;;;;;;;;5057440;28;20385;-80
2024/02/24 01:02:28;;;;;;;2.60;2.40;;;;;;;;;;5057011;28;20377;-80
2024/02/24 01:04:54;;;;;;;6.05;5.03;;;;;;;;;;5056938;28;20386;-80
2024/02/24 01:07:20;;;;;;;3.90;3.50;;;;;;;;;;5056582;28;20465;-80
2024/02/24 01:09:46;;;;;;;3.28;2.75;;;;;;;;;;5056869;28;20862;-80
2024/02/24 01:12:12;;;;;;;2.95;2.42;;;;;;;;;;5057387;28;20389;-80
2024/02/24 01:14:38;;;;;;;3.53;2.80;;;;;;;;;;5056692;28;20481;-80
2024/02/24 01:17:04;;;;;;;3.00;2.30;;;;;;;;;;5057005;28;20447;-80
2024/02/24 01:19:30;;;;;;;2.92;2.33;;;;;;;;;;5057296;28;20401;-80
2024/02/24 01:21:56;;;;;;;3.67;2.70;;;;;;;;;;5056845;28;20735;-80
2024/02/24 01:24:22;;;;;;;3.55;2.90;;;;;;;;;;5056803;28;20420;-80
2024/02/24 01:26:48;;;;;;;3.00;2.63;;;;;;;;;;5056417;28;20385;-80
2024/02/24 01:29:14;;;;;;;2.35;2.15;;;;;;;;;;5055985;28;20764;-80
2024/02/24 01:31:40;;;;;;;3.67;2.50;;;;;;;;;;5056338;28;20400;-80
2024/02/24 01:34:06;;;;;;;3.22;2.30;;;;;;;;;;5056617;28;21000;-80
2024/02/24 01:36:32;;;;;;;3.17;2.40;;;;;;;;;;5057012;28;20452;-80
2024/02/24 01:38:58;;;;;;;2.50;2.22;;;;;;;;;;5057002;28;20491;-80
2024/02/24 01:41:24;;;;;;;2.35;1.73;;;;;;;;;;5056711;28;20433;-80
2024/02/24 01:43:50;;;;;;;2.95;2.00;;;;;;;;;;5055864;28;20412;-80
2024/02/24 01:46:16;;;;;;;2.33;2.13;;;;;;;;;;5056422;28;20386;-80
2024/02/24 01:48:43;;;;;;;2.55;1.80;;;;;;;;;;5056447;28;20388;-80
2024/02/24 01:51:12;;;;;;;2.50;2.13;;;;;;;;;;5056265;28;20472;-80
2024/02/24 01:53:38;;;;;;;4.53;3.22;;;;;;;;;;5056325;28;20416;-80
2024/02/24 01:56:08;;;;;;;2.20;2.00;;;;;;;;;;5055935;28;20385;-80
2024/02/24 01:58:37;;;;;;;3.92;3.40;;;;;;;;;;5056215;28;20416;-80
2024/02/24 02:01:04;;;;;;;2.70;2.22;;;;;;;;;;5055916;28;20849;-80
2024/02/24 02:03:30;;;;;;;2.20;2.00;;;;;;;;;;5055965;28;20385;-80
2024/02/24 02:05:56;;;;;;;4.10;2.67;;;;;;;;;;5056122;28;20814;-80
2024/02/24 02:08:22;;;;;;;2.72;2.10;;;;;;;;;;5055670;28;20386;-80
2024/02/24 02:10:52;;;;;;;3.97;2.20;;;;;;;;;;5056618;28;20392;-82
2024/02/24 02:13:18;;;;;;;2.03;1.73;;;;;;;;;;5056466;28;20486;-80
2024/02/24 02:15:45;;;;;;;2.42;1.90;;;;;;;;;;5069794;28;20376;-80
2024/02/24 02:18:11;;;;;;;2.15;1.90;;;;;;;;;;5076022;28;20414;-80
2024/02/24 02:20:37;;;;;;;3.20;3.00;;;;;;;;;;5079138;28;20866;-80
2024/02/24 02:23:03;;;;;;;3.17;2.88;;;;;;;;;;5078986;28;20422;-80
2024/02/24 02:25:29;;;;;;;3.13;2.80;;;;;;;;;;5079635;28;20379;-80
2024/02/24 02:27:55;;;;;;;3.80;2.80;;;;;;;;;;5078879;28;20379;-80
2024/02/24 02:30:21;;;;;;;3.50;2.53;;;;;;;;;;5079526;28;20411;-80
2024/02/24 02:32:47;;;;;;;2.60;2.22;;;;;;;;;;5078941;28;20400;-80
2024/02/24 02:35:13;;;;;;;3.10;2.40;;;;;;;;;;5079025;28;20944;-80
2024/02/24 02:37:39;;;;;;;3.10;2.30;;;;;;;;;;5079238;28;20386;-80
2024/02/24 02:40:05;;;;;;;2.30;2.07;;;;;;;;;;5079220;28;20372;-80
2024/02/24 02:42:31;;;;;;;2.38;2.17;;;;;;;;;;5078709;28;20829;-80
2024/02/24 02:44:57;;;;;;;2.95;2.28;;;;;;;;;;5078937;28;20381;-80
2024/02/24 02:47:23;;;;;;;2.30;2.00;;;;;;;;;;5078685;28;20526;-80
2024/02/24 02:49:49;;;;;;;2.10;1.90;;;;;;;;;;5079378;28;20388;-80
2024/02/24 02:52:15;;;;;;;2.42;2.08;;;;;;;;;;5078805;28;20441;-80
2024/02/24 02:54:41;;;;;;;2.53;2.00;;;;;;;;;;5072906;28;20386;-80
2024/02/24 02:57:07;;;;;;;2.10;1.83;;;;;;;;;;5058892;28;20378;-80
2024/02/24 02:59:36;;;;;;;2.88;2.10;;;;;;;;;;5058782;28;20389;-80
2024/02/24 03:02:02;;;;;;;4.63;2.23;;;;;;;;;;5058581;28;20436;-80
2024/02/24 03:04:28;;;;;;;2.40;2.17;;;;;;;;;;5058975;28;20423;-80
2024/02/24 03:06:54;;;;;;;2.53;2.13;;;;;;;;;;5072090;28;20437;-80
2024/02/24 03:09:20;;;;;;;2.90;2.50;;;;;;;;;;5078774;28;20384;-79
2024/02/24 03:11:46;;;;;;;4.50;2.53;;;;;;;;;;5078748;28;20376;-80
2024/02/24 03:14:12;;;;;;;2.25;2.05;;;;;;;;;;5078609;28;20411;-80
2024/02/24 03:16:38;;;;;;;2.42;2.20;;;;;;;;;;5078757;28;20387;-80
2024/02/24 03:19:06;;;;;;;2.50;2.30;;;;;;;;;;5078449;28;20384;-80
2024/02/24 03:21:32;;;;;;;2.50;2.13;;;;;;;;;;5078534;28;20744;-80
2024/02/24 03:23:59;;;;;;;2.60;2.00;;;;;;;;;;5079258;28;20392;-80
2024/02/24 03:26:25;;;;;;;2.43;2.20;;;;;;;;;;5078459;28;20379;-80
2024/02/24 03:28:51;;;;;;;2.45;2.25;;;;;;;;;;5077918;28;20500;-79
2024/02/24 03:31:17;;;;;;;3.88;1.90;;;;;;;;;;5076968;28;20891;-80
2024/02/24 03:33:43;;;;;;;2.53;2.25;;;;;;;;;;5078500;28;21030;-80
2024/02/24 03:36:15;;;;;;;2.50;2.30;;;;;;;;;;5078142;28;20387;-80
2024/02/24 03:38:42;;;;;;;2.20;2.00;;;;;;;;;;5077804;28;20722;-80
2024/02/24 03:41:08;;;;;;;2.30;2.03;;;;;;;;;;5077579;28;20388;-80
2024/02/24 03:43:38;;;;;;;2.88;2.33;;;;;;;;;;5078553;28;20379;-80
2024/02/24 03:46:04;;;;;;;2.33;2.13;;;;;;;;;;5077542;28;20905;-80
2024/02/24 03:48:31;;;;;;;2.10;1.90;;;;;;;;;;5077464;28;20437;-80
2024/02/24 03:50:57;;;;;;;3.60;2.22;;;;;;;;;;5077722;28;20380;-80
2024/02/24 03:53:23;;;;;;;2.40;2.05;;;;;;;;;;5077449;28;20515;-80
2024/02/24 03:55:52;;;;;;;2.22;1.90;;;;;;;;;;5078146;28;20384;-80
2024/02/24 03:58:18;;;;;;;2.08;1.90;;;;;;;;;;5078104;28;20384;-80
2024/02/24 04:00:45;;;;;;;1.90;1.70;;;;;;;;;;5077728;28;20383;-80
2024/02/24 04:03:11;;;;;;;2.33;1.90;;;;;;;;;;5078253;28;20798;-80
2024/02/24 04:05:37;;;;;;;1.80;1.70;;;;;;;;;;5077524;28;20383;-80
2024/02/24 04:08:06;;;;;;;2.67;1.80;;;;;;;;;;5078395;28;20384;-80
2024/02/24 04:10:32;;;;;;;2.22;1.80;;;;;;;;;;5077646;28;20421;-80
2024/02/24 04:12:58;;;;;;;2.03;1.67;;;;;;;;;;5077297;28;20422;-80
2024/02/24 04:15:24;;;;;;;1.80;1.70;;;;;;;;;;5077124;28;20849;-80
2024/02/24 04:17:50;;;;;;;3.10;1.92;;;;;;;;;;5077533;28;20383;-80
2024/02/24 04:20:17;;;;;;;2.23;1.93;;;;;;;;;;5077098;28;20387;-80
2024/02/24 04:22:43;;;;;;;2.20;1.98;;;;;;;;;;5077054;28;20404;-80
2024/02/24 04:25:09;;;;;;;2.10;1.88;;;;;;;;;;5076825;28;20830;-80
2024/02/24 04:27:36;;;;;;;2.50;1.98;;;;;;;;;;5077391;28;20391;-80
2024/02/24 04:30:02;;;;;;;2.47;1.85;;;;;;;;;;5076924;28;20400;-80
2024/02/24 04:32:28;;;;;;;2.08;1.73;;;;;;;;;;5076676;28;20388;-80
2024/02/24 04:34:55;;;;;;;2.33;1.83;;;;;;;;;;5076922;28;20923;-80
2024/02/24 04:37:21;;;;;;;2.05;1.90;;;;;;;;;;5077494;28;20841;-80
2024/02/24 04:39:47;;;;;;;2.00;1.63;;;;;;;;;;5077236;28;20423;-80
2024/02/24 04:42:14;;;;;;;3.28;2.10;;;;;;;;;;5077266;28;20419;-80
2024/02/24 04:44:40;;;;;;;2.03;1.80;;;;;;;;;;5077157;28;20404;-80
2024/02/24 04:47:06;;;;;;;2.20;1.90;;;;;;;;;;5073282;28;20733;-80
2024/02/24 04:49:32;;;;;;;1.80;1.70;;;;;;;;;;5068762;28;20380;-80
2024/02/24 04:51:58;;;;;;;2.83;1.90;;;;;;;;;;5076847;28;20380;-80
2024/02/24 04:54:24;;;;;;;2.30;1.85;;;;;;;;;;5077591;28;20897;-80
2024/02/24 04:56:50;;;;;;;2.47;2.10;;;;;;;;;;5071837;28;20400;-80
2024/02/24 04:59:17;;;;;;;2.45;2.25;;;;;;;;;;5058745;28;20394;-80
2024/02/24 05:01:43;;;;;;;2.38;2.17;;;;;;;;;;5074197;28;20405;-80
2024/02/24 05:04:09;;;;;;;2.10;1.90;;;;;;;;;;5076856;28;20910;-80
2024/02/24 05:06:35;;;;;;;3.05;2.10;;;;;;;;;;5077687;28;20379;-80
2024/02/24 05:09:01;;;;;;;2.70;1.90;;;;;;;;;;5076628;28;20375;-80
2024/02/24 05:11:27;;;;;;;1.80;1.70;;;;;;;;;;5076910;28;20379;-80
2024/02/24 05:13:53;;;;;;;2.28;2.03;;;;;;;;;;5077021;28;20417;-80
2024/02/24 05:16:19;;;;;;;2.10;1.90;;;;;;;;;;5076638;28;20406;-80
2024/02/24 05:18:45;;;;;;;2.70;1.98;;;;;;;;;;5076979;28;20434;-80
2024/02/24 05:21:19;;;;;;;2.20;2.00;;;;;;;;;;5077459;28;20471;-80
2024/02/24 05:23:45;;;;;;;2.40;1.65;;;;;;;;;;5077002;28;20383;-80
2024/02/24 05:26:21;;;;;;;2.10;1.90;;;;;;;;;;5077073;28;20483;-80
2024/02/24 05:28:47;;;;;;;2.25;2.15;;;;;;;;;;5076270;28;20384;-80
2024/02/24 05:31:13;;;;;;;2.10;1.90;;;;;;;;;;5076969;28;20426;-80
2024/02/24 05:33:39;;;;;;;2.50;1.98;;;;;;;;;;5076543;28;20403;-80
2024/02/24 05:36:05;;;;;;;2.23;2.03;;;;;;;;;;5076991;28;20892;-80
2024/02/24 05:38:34;;;;;;;2.42;1.60;;;;;;;;;;5076828;28;20387;-80
2024/02/24 05:41:03;;;;;;;1.95;1.75;;;;;;;;;;5076462;28;20384;-80
2024/02/24 05:43:32;;;;;;;2.13;1.90;;;;;;;;;;5076746;28;20466;-80
2024/02/24 05:45:58;;;;;;;2.03;1.70;;;;;;;;;;5077037;28;20415;-80
2024/02/24 05:48:24;;;;;;;2.80;2.00;;;;;;;;;;5076815;28;20395;-80
2024/02/24 05:50:50;;;;;;;3.30;2.13;;;;;;;;;;5076544;28;20383;-80
2024/02/24 05:53:16;;;;;;;2.10;1.93;;;;;;;;;;5076523;28;20518;-80
2024/02/24 05:55:43;;;;;;;2.38;2.15;;;;;;;;;;5079674;28;20384;-80
2024/02/24 05:58:09;;;;;;;2.55;2.35;;;;;;;;;;5080084;28;20371;-80
2024/02/24 06:00:36;;;;;;;2.55;2.22;;;;;;;;;;5080203;28;20375;-80
2024/02/24 06:03:02;;;;;;;2.60;2.40;;;;;;;;;;5079618;28;20375;-80
2024/02/24 06:05:28;;;;;;;3.15;2.60;;;;;;;;;;5079841;28;20447;-80
2024/02/24 06:07:54;;;;;;;2.63;2.25;;;;;;;;;;5079640;28;20881;-80
2024/02/24 06:10:21;;;;;;;2.50;2.25;;;;;;;;;;5079931;28;20383;-80
2024/02/24 06:12:47;;;;;;;2.85;2.45;;;;;;;;;;5079520;28;20808;-81
2024/02/24 06:15:13;;;;;;;3.25;2.33;;;;;;;;;;5079381;28;20407;-80
2024/02/24 06:17:39;;;;;;;4.87;3.97;;;;;;;;;;5079975;28;20386;-80
2024/02/24 06:20:05;;;;;;;3.08;2.67;;;;;;;;;;5079690;28;20376;-80
2024/02/24 06:22:31;;;;;;;5.38;4.03;;;;;;;;;;5079587;28;20372;-81
2024/02/24 06:24:57;;;;;;;25.52;13.60;;;;;;;;;;5079508;28;20723;-80
2024/02/24 06:27:23;;;;;;;14.73;7.90;;;;;;;;;;5079571;28;20457;-80
2024/02/24 06:29:49;;;;;;;5.75;4.32;;;;;;;;;;5079125;28;20408;-80
2024/02/24 06:32:15;;;;;;;2.55;2.20;;;;;;;;;;5079662;28;20395;-80
2024/02/24 06:34:44;;;;;;;7.80;5.05;;;;;;;;;;5079843;28;20388;-80
2024/02/24 06:37:10;;;;;;;18.95;10.48;;;;;;;;;;5079724;28;20795;-80
2024/02/24 06:39:36;;;;;;;23.83;12.05;;;;;;;;;;5079996;28;20383;-80
2024/02/24 06:42:02;;;;;;;23.97;12.33;;;;;;;;;;5079005;28;20379;-80
2024/02/24 06:44:28;;;;;;;14.95;8.90;;;;;;;;;;5078634;28;20746;-80
2024/02/24 06:46:54;;;;;;;11.18;7.40;;;;;;;;;;5078994;28;20408;-80
2024/02/24 06:49:20;;;;;;;8.25;5.97;;;;;;;;;;5078215;28;20722;-80
2024/02/24 06:51:46;;;;;;;9.32;6.53;;;;;;;;;;5078396;28;20391;-80
2024/02/24 06:54:12;;;;;;;32.70;14.20;;;;;;;;;;5076548;28;20436;-80
2024/02/24 06:56:38;;;;;;;20.27;9.10;;;;;;;;;;5078647;28;20861;-80
2024/02/24 06:59:06;;;;;;;4.80;3.78;;;;;;;;;;5069853;28;20386;-80
2024/02/24 07:01:35;;;;;;;14.33;7.50;;;;;;;;;;5057749;28;20507;-80
2024/02/24 07:04:01;;;;;;;59.08;22.27;;;;;;;;;;5058424;28;20385;-80
2024/02/24 07:06:28;;;;;;;28.17;12.13;;;;;;;;;;5057087;28;20466;-80
2024/02/24 07:08:54;;;;;;;44.70;18.47;;;;;;;;;;5058139;28;20428;-80
2024/02/24 07:11:20;;;;;;;4.65;4.25;;;;;;;;;;5058075;28;20389;-80
2024/02/24 07:13:46;;;;;;;4.15;3.40;;;;;;;;;;5058482;28;20406;-80
2024/02/24 07:16:13;;;;;;;4.20;3.80;;;;;;;;;;5056443;28;20921;-82
2024/02/24 07:18:39;;;;;;;4.50;4.10;;;;;;;;;;5057999;28;20508;-80
2024/02/24 07:21:06;;;;;;;5.40;4.90;;;;;;;;;;5057473;28;20385;-80
2024/02/24 07:23:32;;;;;;;5.13;4.60;;;;;;;;;;5058128;28;20385;-81
2024/02/24 07:26:01;;;;;;;4.85;4.40;;;;;;;;;;5058288;28;20553;-80
2024/02/24 07:28:28;;;;;;;6.43;4.75;;;;;;;;;;5058139;28;20392;-80
2024/02/24 07:30:54;;;;;;;6.40;4.40;;;;;;;;;;5057846;28;20506;-80
2024/02/24 07:33:20;;;;;;;3.50;3.20;;;;;;;;;;5057477;28;20441;-79
2024/02/24 07:35:47;;;;;;;3.47;2.55;;;;;;;;;;5057014;28;20392;-79
2024/02/24 07:38:13;;;;;;;7.57;6.43;;;;;;;;;;5057846;28;20378;-79
2024/02/24 07:40:39;;;;;;;2.90;2.42;;;;;;;;;;5057532;28;20781;-79
2024/02/24 07:43:05;;;;;;;1.80;1.40;;;;;;;;;;5057742;28;20760;-81
2024/02/24 07:45:31;;;;;;;1.65;1.40;;;;;;;;;;5057767;28;20492;-79
2024/02/24 07:47:57;;;;;;;2.10;1.90;;;;;;;;;;5057284;28;20409;-79
2024/02/24 07:50:23;;;;;;;1.77;1.67;;;;;;;;;;5058197;28;20374;-81
2024/02/24 07:52:49;;;;;;;1.40;1.30;;;;;;;;;;5057764;28;20397;-80
2024/02/24 07:55:16;;;;;;;1.25;1.10;;;;;;;;;;5057791;28;20378;-79
2024/02/24 07:57:42;;;;;;;1.40;1.30;;;;;;;;;;5070686;28;20383;-80
2024/02/24 08:00:09;;;;;;;1.50;1.10;;;;;;;;;;5077737;28;20384;-79
2024/02/24 08:02:36;;;;;;;1.50;1.40;;;;;;;;;;5078036;28;20383;-79
2024/02/24 08:05:02;;;;;;;1.63;1.50;;;;;;;;;;5077555;28;20719;-79
2024/02/24 08:07:29;;;;;;;2.65;2.30;;;;;;;;;;5077539;28;20395;-79
2024/02/24 08:09:55;;;;;;;3.00;2.67;;;;;;;;;;5077427;28;20407;-79
2024/02/24 08:12:21;;;;;;;2.70;2.50;;;;;;;;;;5077619;28;20422;-80
2024/02/24 08:14:48;;;;;;;2.73;2.43;;;;;;;;;;5078367;28;20854;-80
2024/02/24 08:17:14;;;;;;;2.45;2.20;;;;;;;;;;5077393;28;20380;-80
2024/02/24 08:19:43;;;;;;;3.22;2.60;;;;;;;;;;5076522;28;20372;-80
2024/02/24 08:22:09;;;;;;;2.53;2.33;;;;;;;;;;5076791;28;20407;-80
2024/02/24 08:24:35;;;;;;;2.38;1.75;;;;;;;;;;5077203;28;20432;-80
2024/02/24 08:27:01;;;;;;;1.50;1.40;;;;;;;;;;5076578;28;20388;-80
2024/02/24 08:29:31;;;;;;;0.77;0.60;;;;;;;;;;5076812;28;20416;-80
2024/02/24 08:31:57;;;;;;;0.88;0.73;;;;;;;;;;5077335;28;20927;-80
2024/02/24 08:34:23;;;;;;;0.60;0.50;;;;;;;;;;5077185;28;20407;-80
2024/02/24 08:36:49;;;;;;;0.77;0.63;;;;;;;;;;5077357;28;20386;-80
2024/02/24 08:39:15;;;;;;;0.80;0.60;;;;;;;;;;5076888;28;20386;-80
2024/02/24 08:41:41;;;;;;;1.40;0.65;;;;;;;;;;5077452;28;20589;-83
2024/02/24 08:44:07;;;;;;;1.27;0.88;;;;;;;;;;5077446;28;20406;-81
2024/02/24 08:46:33;;;;;;;0.65;0.50;;;;;;;;;;5077769;28;20391;-82
2024/02/24 08:48:59;;;;;;;0.80;0.50;;;;;;;;;;5077199;28;20510;-82
2024/02/24 08:51:28;;;;;;;0.60;0.50;;;;;;;;;;5077368;28;20408;-81
2024/02/24 08:53:54;;;;;;;0.43;0.40;;;;;;;;;;5077217;28;20412;-80
2024/02/24 08:56:21;;;;;;;1.40;0.70;;;;;;;;;;5072736;28;20415;-81
2024/02/24 08:58:47;;;;;;;0.50;0.50;;;;;;;;;;5077141;28;20380;-80
2024/02/24 09:01:18;;;;;;;0.40;0.40;;;;;;;;;;5076883;28;20398;-82
2024/02/24 09:03:44;;;;;;;0.95;0.90;;;;;;;;;;5077665;28;20380;-82
2024/02/24 09:06:10;;;;;;;0.50;0.50;;;;;;;;;;5075792;28;20392;-80
2024/02/24 09:08:37;;;;;;;0.40;0.40;;;;;;;;;;5076731;28;20384;-80
2024/02/24 09:11:03;;;;;;;0.50;0.40;;;;;;;;;;5077358;28;20472;-80
2024/02/24 09:13:30;;;;;;;0.43;0.40;;;;;;;;;;5077389;28;20396;-80
2024/02/24 09:15:56;;;;;;;0.40;0.30;;;;;;;;;;5076734;28;20368;-80
2024/02/24 09:18:22;;;;;;;0.30;0.25;;;;;;;;;;5076976;28;20857;-80
2024/02/24 09:20:48;;;;;;;0.50;0.40;;;;;;;;;;5076655;28;20437;-80
2024/02/24 09:23:13;;;;;;;0.45;0.40;;;;;;;;;;5076615;28;20458;-80
2024/02/24 09:25:39;;;;;;;1.70;0.40;;;;;;;;;;5076484;28;20380;-80
2024/02/24 09:28:06;;;;;;;0.20;0.20;;;;;;;;;;5076152;28;20383;-80
2024/02/24 09:30:32;;;;;;;0.40;0.30;;;;;;;;;;5079283;28;20908;-80
2024/02/24 09:33:00;;;;;;;0.30;0.30;;;;;;;;;;5080526;28;20411;-81
2024/02/24 09:35:26;;;;;;;0.65;0.40;;;;;;;;;;5080698;28;20428;-80
2024/02/24 09:37:52;;;;;;;0.55;0.38;;;;;;;;;;5080688;28;20805;-81
2024/02/24 09:40:18;;;;;;;0.25;0.20;;;;;;;;;;5081006;28;20433;-79
2024/02/24 09:42:44;;;;;;;0.30;0.27;;;;;;;;;;5080923;28;20849;-81
2024/02/24 09:45:14;;;;;;;0.70;0.30;;;;;;;;;;5081041;28;20441;-82
2024/02/24 09:47:43;;;;;;;0.30;0.30;;;;;;;;;;5080225;28;20379;-81
2024/02/24 09:50:11;;;;;;;0.90;0.40;;;;;;;;;;5080153;28;20384;-81
2024/02/24 09:52:38;;;;;;;1.00;0.40;;;;;;;;;;5079928;28;20900;-80
2024/02/24 09:55:04;;;;;;;0.32;0.30;;;;;;;;;;5080196;28;20383;-80
2024/02/24 09:57:35;;;;;;;0.22;0.20;;;;;;;;;;5079879;28;20376;-81
2024/02/24 10:00:01;;;;;;;1.30;0.40;;;;;;;;;;5080245;28;20379;-83
2024/02/24 10:02:27;;;;;;;0.20;0.20;;;;;;;;;;5079874;28;20391;-82
2024/02/24 10:04:53;;;;;;;0.47;0.40;;;;;;;;;;5080001;28;20402;-81
2024/02/24 10:07:19;;;;;;;0.80;0.60;;;;;;;;;;5079654;28;20433;-81
2024/02/24 10:09:45;;;;;;;1.00;0.43;;;;;;;;;;5080459;28;20384;-81
2024/02/24 10:12:11;;;;;;;1.75;0.30;;;;;;;;;;5079360;28;20722;-82
2024/02/24 10:14:37;;;;;;;0.50;0.40;;;;;;;;;;5078488;28;20443;-81
2024/02/24 10:17:03;;;;;;;1.20;0.43;;;;;;;;;;5078314;28;20845;-81
2024/02/24 10:19:33;;;;;;;1.98;0.35;;;;;;;;;;5077425;28;20379;-81
2024/02/24 10:22:04;;;;;;;0.68;0.40;;;;;;;;;;5076471;28;20380;-81
2024/02/24 10:24:30;;;;;;;1.07;0.60;;;;;;;;;;5075967;28;20392;-81
2024/02/24 10:26:56;;;;;;;0.70;0.60;;;;;;;;;;5077061;28;20379;-81
2024/02/24 10:29:27;;;;;;;0.50;0.40;;;;;;;;;;5078301;28;20404;-81
2024/02/24 10:31:54;;;;;;;0.70;0.40;;;;;;;;;;5076778;28;20406;-81
2024/02/24 10:34:21;;;;;;;0.40;0.30;;;;;;;;;;5078744;28;20962;-82
2024/02/24 10:36:49;;;;;;;0.80;0.30;;;;;;;;;;5079068;28;20380;-81
2024/02/24 10:39:16;;;;;;;0.47;0.30;;;;;;;;;;5076517;28;20380;-80
2024/02/24 10:41:44;;;;;;;0.30;0.30;;;;;;;;;;5077606;28;20376;-81
2024/02/24 10:44:10;;;;;;;0.28;0.28;;;;;;;;;;5078410;28;20388;-81
2024/02/24 10:46:36;;;;;;;0.85;0.30;;;;;;;;;;5075737;28;20418;-81
2024/02/24 10:49:02;;;;;;;0.37;0.20;;;;;;;;;;5069351;28;20399;-81
2024/02/24 10:51:28;;;;;;;0.30;0.20;;;;;;;;;;5077648;28;20387;-81
2024/02/24 10:53:56;;;;;;;0.40;0.30;;;;;;;;;;5062839;28;20479;-81
2024/02/24 10:56:22;;;;;;;0.20;0.20;;;;;;;;;;5057424;28;20384;-82
2024/02/24 10:58:48;;;;;;;0.32;0.22;;;;;;;;;;5057569;28;20386;-82
2024/02/24 11:01:18;;;;;;;1.00;0.30;;;;;;;;;;5056391;28;20410;-81
2024/02/24 11:03:44;;;;;;;0.30;0.30;;;;;;;;;;5057445;28;20456;-81
2024/02/24 11:06:12;;;;;;;1.23;0.40;;;;;;;;;;5057544;28;20390;-81
2024/02/24 11:08:40;;;;;;;0.40;0.30;;;;;;;;;;5057806;28;20389;-81
2024/02/24 11:11:10;;;;;;;1.50;0.50;;;;;;;;;;5057891;28;20392;-81
2024/02/24 11:13:36;;;;;;;1.55;0.30;;;;;;;;;;5057357;28;20793;-82
2024/02/24 11:16:05;;;;;;;0.55;0.30;;;;;;;;;;5058223;28;20426;-82
2024/02/24 11:18:50;;;;;;;0.45;0.30;;;;;;;;;;5058078;28;20377;-82
2024/02/24 11:21:36;;;;;;;0.20;0.13;;;;;;;;;;5058455;28;20381;-82
2024/02/24 11:24:15;;;;;;;0.75;0.40;;;;;;;;;;5061365;28;20386;-82
2024/02/24 11:26:44;;;;;;;0.77;0.40;;;;;;;;;;5058154;28;20836;-80
2024/02/24 11:29:16;;;;;;;0.50;0.30;;;;;;;;;;5058186;28;20432;-82
2024/02/24 11:31:43;;;;;;;0.40;0.20;;;;;;;;;;5058689;28;20425;-80
2024/02/24 11:34:10;;;;;;;0.30;0.30;;;;;;;;;;5058052;28;20409;-79
2024/02/24 11:36:38;;;;;;;0.40;0.30;;;;;;;;;;5058180;28;20712;-81
2024/02/24 11:39:07;;;;;;;0.60;0.33;;;;;;;;;;5058197;28;20385;-82
2024/02/24 11:41:33;;;;;;;0.70;0.40;;;;;;;;;;5058267;28;20416;-79
2024/02/24 11:44:00;;;;;;;0.93;0.60;;;;;;;;;;5057886;28;20480;-81
2024/02/24 11:46:27;;;;;;;0.57;0.57;;;;;;;;;;5057931;28;20539;-80
2024/02/24 11:48:54;;;;;;;0.50;0.50;;;;;;;;;;5058159;28;20385;-81
2024/02/24 11:51:23;;;;;;;0.80;0.40;;;;;;;;;;5057413;28;20389;-81
2024/02/24 11:53:50;;;;;;;0.83;0.83;;;;;;;;;;5066733;28;20460;-79
2024/02/24 11:56:16;;;;;;;0.80;0.30;;;;;;;;;;5078439;28;20445;-79
2024/02/24 11:58:42;;;;;;;0.70;0.30;;;;;;;;;;5077818;28;20380;-80
2024/02/24 12:01:10;;;;;;;0.30;0.30;;;;;;;;;;5078191;28;20371;-79
2024/02/24 12:03:36;;;;;;;1.10;0.40;;;;;;;;;;5078209;28;20388;-80
2024/02/24 12:06:05;;;;;;;0.63;0.40;;;;;;;;;;5077923;28;20388;-79
2024/02/24 12:08:32;;;;;;;0.77;0.57;;;;;;;;;;5077652;28;20392;-80
2024/02/24 12:10:58;;;;;;;0.90;0.50;;;;;;;;;;5077646;28;20404;-79
2024/02/24 12:13:25;;;;;;;0.73;0.73;;;;;;;;;;5077758;28;20402;-79
2024/02/24 12:15:53;;;;;;;0.50;0.30;;;;;;;;;;5077229;28;20390;-79
2024/02/24 12:18:20;;;;;;;1.13;0.60;;;;;;;;;;5075744;28;20902;-80
2024/02/24 12:20:48;;;;;;;1.83;1.23;;;;;;;;;;5077046;28;20380;-80
2024/02/24 12:23:16;;;;;;;2.10;1.50;;;;;;;;;;5076439;28;20395;-80
2024/02/24 12:25:43;;;;;;;0.40;0.40;;;;;;;;;;5077184;28;20383;-79
2024/02/24 12:28:10;;;;;;;0.80;0.28;;;;;;;;;;5077015;28;20387;-79
2024/02/24 12:30:37;;;;;;;1.35;0.70;;;;;;;;;;5077014;28;20407;-79
2024/02/24 12:33:04;;;;;;;1.40;0.90;;;;;;;;;;5075739;28;20473;-79
2024/02/24 12:35:30;;;;;;;0.38;0.38;;;;;;;;;;5075943;28;20407;-79
2024/02/24 12:37:57;;;;;;;0.40;0.30;;;;;;;;;;5076263;28;20407;-79
2024/02/24 12:40:27;;;;;;;0.35;0.30;;;;;;;;;;5076305;28;20719;-79
2024/02/24 12:42:53;;;;;;;0.50;0.30;;;;;;;;;;5076403;28;20380;-79
2024/02/24 12:45:19;;;;;;;0.60;0.40;;;;;;;;;;5075500;28;20386;-79
2024/02/24 12:47:49;;;;;;;0.43;0.30;;;;;;;;;;5075788;28;20380;-79
2024/02/24 12:50:26;;;;;;;0.40;0.30;;;;;;;;;;5076017;28;20429;-79
2024/02/24 12:52:52;;;;;;;1.00;0.50;;;;;;;;;;5073829;28;20473;-79
2024/02/24 12:55:19;;;;;;;0.70;0.40;;;;;;;;;;5073760;28;20375;-79
2024/02/24 12:57:45;;;;;;;1.60;0.50;;;;;;;;;;5075800;28;20486;-79
2024/02/24 13:00:12;;;;;;;0.43;0.30;;;;;;;;;;5076094;28;20376;-79
2024/02/24 13:02:38;;;;;;;0.90;0.30;;;;;;;;;;5075069;28;20371;-79
2024/02/24 13:05:04;;;;;;;0.22;0.22;;;;;;;;;;5074861;28;20387;-79
2024/02/24 13:07:30;;;;;;;0.55;0.25;;;;;;;;;;5075129;28;20391;-79
2024/02/24 13:09:57;;;;;;;0.50;0.30;;;;;;;;;;5075468;28;20367;-79
2024/02/24 13:12:23;;;;;;;1.07;0.40;;;;;;;;;;5075638;28;20387;-79
2024/02/24 13:14:49;;;;;;;1.17;0.70;;;;;;;;;;5074798;28;20404;-79
2024/02/24 13:17:15;;;;;;;0.40;0.40;;;;;;;;;;5075241;28;20368;-79
2024/02/24 13:19:41;;;;;;;0.80;0.30;;;;;;;;;;5075755;28;20384;-79
2024/02/24 13:22:07;;;;;;;1.35;0.50;;;;;;;;;;5076120;28;20371;-80
2024/02/24 13:24:33;;;;;;;1.00;0.50;;;;;;;;;;5076387;28;20399;-80
2024/02/24 13:27:00;;;;;;;0.98;0.40;;;;;;;;;;5076155;28;20813;-80
2024/02/24 13:29:26;;;;;;;0.60;0.38;;;;;;;;;;5076523;28;20400;-81
2024/02/24 13:31:52;;;;;;;0.90;0.70;;;;;;;;;;5076522;28;20684;-80
2024/02/24 13:34:18;;;;;;;0.80;0.80;;;;;;;;;;5076296;28;20475;-81
2024/02/24 13:36:44;;;;;;;0.68;0.68;;;;;;;;;;5077066;28;20384;-80
2024/02/24 13:39:10;;;;;;;0.40;0.20;;;;;;;;;;5076114;28;20455;-80
2024/02/24 13:41:36;;;;;;;2.85;0.80;;;;;;;;;;5076166;28;20401;-80
2024/02/24 13:44:03;;;;;;;0.82;0.50;;;;;;;;;;5075333;28;20381;-80
2024/02/24 13:46:29;;;;;;;1.60;0.50;;;;;;;;;;5075911;28;20407;-80
2024/02/24 13:49:02;;;;;;;1.27;0.55;;;;;;;;;;5074935;28;20387;-81
2024/02/24 13:51:29;;;;;;;0.70;0.67;;;;;;;;;;5076455;28;20757;-80
2024/02/24 13:53:54;;;;;;;0.30;0.30;;;;;;;;;;5076801;28;20408;-80
2024/02/24 13:56:20;;;;;;;1.60;0.40;;;;;;;;;;5076501;28;20375;-80
2024/02/24 13:58:46;;;;;;;0.90;0.30;;;;;;;;;;5075745;28;20886;-80
2024/02/24 14:01:12;;;;;;;0.95;0.25;;;;;;;;;;5075639;28;20376;-80
2024/02/24 14:03:38;;;;;;;0.75;0.30;;;;;;;;;;5074300;28;20454;-80
2024/02/24 14:06:05;;;;;;;0.40;0.30;;;;;;;;;;5076207;28;20463;-80
2024/02/24 14:08:31;;;;;;;0.57;0.38;;;;;;;;;;5076128;28;20833;-82
2024/02/24 14:10:57;;;;;;;0.60;0.50;;;;;;;;;;5076166;28;20437;-81
2024/02/24 14:13:24;;;;;;;0.80;0.30;;;;;;;;;;5075980;28;20396;-80
2024/02/24 14:15:50;;;;;;;4.45;3.95;;;;;;;;;;5077458;28;20771;-80
2024/02/24 14:18:16;;;;;;;1.77;1.48;;;;;;;;;;5077948;28;20429;-81
2024/02/24 14:20:42;;;;;;;0.70;0.50;;;;;;;;;;5079315;28;20458;-81
2024/02/24 14:23:08;;;;;;;0.60;0.37;;;;;;;;;;5079108;28;20380;-80
2024/02/24 14:25:34;;;;;;;0.60;0.60;;;;;;;;;;5079385;28;20394;-81
2024/02/24 14:28:02;;;;;;;1.13;0.38;;;;;;;;;;5080749;28;20425;-81
2024/02/24 14:30:28;;;;;;;0.45;0.30;;;;;;;;;;5081440;28;20403;-82
2024/02/24 14:32:54;;;;;;;0.60;0.30;;;;;;;;;;5079780;28;20434;-81
2024/02/24 14:35:22;;;;;;;2.90;0.80;;;;;;;;;;5080615;28;20376;-82
2024/02/24 14:37:48;;;;;;;0.65;0.50;;;;;;;;;;5079955;28;20376;-81
2024/02/24 14:40:14;;;;;;;2.00;0.50;;;;;;;;;;5079933;28;20384;-82